createdAt,value
2018-10-09T00:01:32.957Z,10.70
2018-10-09T00:04:02.411Z,11.47
2018-10-09T00:06:31.678Z,11.73
2018-10-09T00:09:00.939Z,11.33
2018-10-09T00:11:30.242Z,11.30
2018-10-09T00:13:59.454Z,11.70
2018-10-09T00:16:28.746Z,13.17
2018-10-09T00:18:57.961Z,12.43
2018-10-09T00:21:27.151Z,12.07
2018-10-09T00:23:56.555Z,12.47
2018-10-09T00:26:25.768Z,12.90
2018-10-09T00:28:54.973Z,12.50
2018-10-09T00:31:24.246Z,11.37
2018-10-09T00:33:53.469Z,12.00
2018-10-09T00:36:22.667Z,12.10
2018-10-09T00:38:51.962Z,12.47
2018-10-09T00:41:21.235Z,14.83
2018-10-09T00:43:50.445Z,12.80
2018-10-09T00:46:19.901Z,15.10
2018-10-09T00:48:49.127Z,13.07
2018-10-09T00:51:18.330Z,16.03
2018-10-09T00:53:47.685Z,12.97
2018-10-09T00:56:16.865Z,13.73
2018-10-09T00:58:46.048Z,14.60
2018-10-09T01:01:15.366Z,13.87
2018-10-09T01:03:44.568Z,13.93
2018-10-09T01:06:13.759Z,13.73
2018-10-09T01:08:43.042Z,14.50
2018-10-09T01:11:12.546Z,14.60
2018-10-09T01:13:41.735Z,13.83
2018-10-09T01:16:11.129Z,14.73
2018-10-09T01:18:40.329Z,15.20
2018-10-09T01:21:09.531Z,14.20
2018-10-09T01:23:38.863Z,14.50
2018-10-09T01:26:08.577Z,14.90
2018-10-09T01:28:37.775Z,15.00
2018-10-09T01:31:07.078Z,14.73
2018-10-09T01:33:36.310Z,14.33
2018-10-09T01:36:05.547Z,15.33
2018-10-09T01:38:34.809Z,15.40
2018-10-09T01:41:04.141Z,14.13
2018-10-09T01:43:33.442Z,14.23
2018-10-09T01:46:03.446Z,16.40
2018-10-09T01:48:32.653Z,14.90
2018-10-09T01:51:01.968Z,17.10
2018-10-09T01:53:31.251Z,16.57
2018-10-09T01:56:00.521Z,16.30
2018-10-09T01:58:29.754Z,15.50
2018-10-09T02:00:59.138Z,16.90
2018-10-09T02:03:28.419Z,16.27
2018-10-09T02:05:57.618Z,17.13
2018-10-09T02:08:26.830Z,17.70
2018-10-09T02:10:56.295Z,16.97
2018-10-09T02:13:25.559Z,16.60
2018-10-09T02:15:54.782Z,16.23
2018-10-09T02:18:24.115Z,15.80
2018-10-09T02:20:53.339Z,16.20
2018-10-09T02:23:22.559Z,17.40
2018-10-09T02:25:51.834Z,17.37
2018-10-09T02:28:21.205Z,16.13
2018-10-09T02:30:50.432Z,17.53
2018-10-09T02:33:19.664Z,15.80
2018-10-09T02:35:49.041Z,17.57
2018-10-09T02:38:18.373Z,17.30
2018-10-09T02:40:47.574Z,17.13
2018-10-09T02:43:16.861Z,17.57
2018-10-09T02:45:46.078Z,18.40
2018-10-09T02:48:15.326Z,16.37
2018-10-09T02:50:44.627Z,18.20
2018-10-09T02:53:13.928Z,16.40
2018-10-09T02:55:43.183Z,18.07
2018-10-09T02:58:12.421Z,19.77
2018-10-09T03:00:41.705Z,18.73
2018-10-09T03:03:10.949Z,18.57
2018-10-09T03:05:40.171Z,19.73
2018-10-09T03:08:09.589Z,20.50
2018-10-09T03:10:38.869Z,19.10
2018-10-09T03:13:13.558Z,18.03
2018-10-09T03:15:42.762Z,18.43
2018-10-09T03:18:11.962Z,19.13
2018-10-09T03:20:41.331Z,18.63
2018-10-09T03:23:10.454Z,18.50
2018-10-09T03:25:39.657Z,19.10
2018-10-09T03:28:08.914Z,19.77
2018-10-09T03:30:38.135Z,18.07
2018-10-09T03:33:07.353Z,18.80
2018-10-09T03:35:36.628Z,18.80
2018-10-09T03:38:05.846Z,17.77
2018-10-09T03:40:35.123Z,18.13
2018-10-09T03:43:04.352Z,18.67
2018-10-09T03:45:33.637Z,18.80
2018-10-09T03:48:03.021Z,19.60
2018-10-09T03:50:32.231Z,19.53
2018-10-09T03:53:01.541Z,19.10
2018-10-09T03:55:30.861Z,19.17
2018-10-09T03:58:00.091Z,19.40
2018-10-09T04:00:29.340Z,19.87
2018-10-09T04:02:58.690Z,19.00
2018-10-09T04:05:28.012Z,18.93
2018-10-09T04:07:57.239Z,19.80
2018-10-09T04:10:26.518Z,20.80
2018-10-09T04:12:55.742Z,20.80
2018-10-09T04:15:25.050Z,20.27
2018-10-09T04:17:54.313Z,19.87
2018-10-09T04:20:23.534Z,19.97
2018-10-09T04:22:52.814Z,19.10
2018-10-09T04:25:22.043Z,20.47
2018-10-09T04:27:51.410Z,21.30
2018-10-09T04:30:20.628Z,20.87
2018-10-09T04:32:49.894Z,21.67
2018-10-09T04:35:19.169Z,19.60
2018-10-09T04:37:49.454Z,19.30
2018-10-09T04:40:18.732Z,20.17
2018-10-09T04:42:47.948Z,21.63
2018-10-09T04:45:17.281Z,20.13
2018-10-09T04:47:46.605Z,21.60
2018-10-09T04:50:15.965Z,21.33
2018-10-09T04:52:45.170Z,21.90
2018-10-09T04:55:14.488Z,21.23
2018-10-09T04:57:43.759Z,21.60
2018-10-09T05:00:13.005Z,21.17
2018-10-09T05:02:42.356Z,20.85
2018-10-09T05:05:11.587Z,21.73
2018-10-09T05:07:40.829Z,20.90
2018-10-09T05:10:10.460Z,22.13
2018-10-09T05:12:39.747Z,21.50
2018-10-09T05:15:08.991Z,21.87
2018-10-09T05:17:38.512Z,21.23
2018-10-09T05:20:09.269Z,21.47
2018-10-09T05:22:38.929Z,21.02
2018-10-09T05:25:08.257Z,21.93
2018-10-09T05:27:37.785Z,22.20
2018-10-09T05:30:07.377Z,20.67
2018-10-09T05:32:36.641Z,21.77
2018-10-09T05:35:05.972Z,23.75
2018-10-09T05:37:35.372Z,21.70
2018-10-09T05:40:04.652Z,21.07
2018-10-09T05:42:33.874Z,21.73
2018-10-09T05:45:03.142Z,24.25
2018-10-09T05:47:32.483Z,22.10
2018-10-09T05:50:01.801Z,21.95
2018-10-09T05:52:31.093Z,23.40
2018-10-09T05:55:00.326Z,23.07
2018-10-09T05:57:29.578Z,24.83
2018-10-09T05:59:58.859Z,29.20
2018-10-09T06:02:28.157Z,23.38
2018-10-09T06:04:57.371Z,21.52
2018-10-09T06:07:26.604Z,24.17
2018-10-09T06:09:55.928Z,23.15
2018-10-09T06:12:25.159Z,23.83
2018-10-09T06:14:54.373Z,22.10
2018-10-09T06:17:23.621Z,23.00
2018-10-09T06:19:52.846Z,23.17
2018-10-09T06:22:22.209Z,22.60
2018-10-09T06:24:51.338Z,22.37
2018-10-09T06:27:20.553Z,20.60
2018-10-09T06:29:49.833Z,21.90
2018-10-09T06:32:19.026Z,22.77
2018-10-09T06:34:48.234Z,22.37
2018-10-09T06:37:17.651Z,23.10
2018-10-09T06:39:46.956Z,21.95
2018-10-09T06:42:16.161Z,23.60
2018-10-09T06:44:45.564Z,23.00
2018-10-09T06:47:14.786Z,21.63
2018-10-09T06:49:44.131Z,22.37
2018-10-09T06:52:13.566Z,21.90
2018-10-09T06:54:43.017Z,25.20
2018-10-09T06:57:12.628Z,21.30
2018-10-09T06:59:41.866Z,21.70
2018-10-09T07:02:11.061Z,20.97
2018-10-09T07:04:40.296Z,20.60
2018-10-09T07:07:09.646Z,21.07
2018-10-09T07:09:38.946Z,21.50
2018-10-09T07:12:09.261Z,19.93
2018-10-09T07:14:38.597Z,20.50
2018-10-09T07:17:07.933Z,20.13
2018-10-09T07:19:37.118Z,20.40
2018-10-09T07:22:06.450Z,21.07
2018-10-09T07:24:36.976Z,19.77
2018-10-09T07:27:06.289Z,19.87
2018-10-09T07:29:35.730Z,21.50
2018-10-09T07:32:05.068Z,21.80
2018-10-09T07:34:34.298Z,19.30
2018-10-09T07:37:03.605Z,19.47
2018-10-09T07:39:32.902Z,19.40
2018-10-09T07:42:02.169Z,18.00
2018-10-09T07:44:32.300Z,17.57
2018-10-09T07:47:01.519Z,18.67
2018-10-09T07:49:30.754Z,18.47
2018-10-09T07:52:00.068Z,19.33
2018-10-09T07:54:29.293Z,17.57
2018-10-09T07:56:58.670Z,16.27
2018-10-09T07:59:27.982Z,19.10
2018-10-09T08:01:57.517Z,17.37
2018-10-09T08:04:26.740Z,18.53
2018-10-09T08:06:56.021Z,16.30
2018-10-09T08:09:25.329Z,17.57
2018-10-09T08:11:54.639Z,15.93
2018-10-09T08:14:23.902Z,16.93
2018-10-09T08:16:53.110Z,15.60
2018-10-09T08:19:22.467Z,15.77
2018-10-09T08:21:51.712Z,16.30
2018-10-09T08:24:21.025Z,17.60
2018-10-09T08:26:50.298Z,16.70
2018-10-09T08:29:19.549Z,15.70
2018-10-09T08:31:50.899Z,17.67
2018-10-09T08:34:20.404Z,16.30
2018-10-09T08:36:49.704Z,15.30
2018-10-09T08:39:19.006Z,15.77
2018-10-09T08:41:48.285Z,16.90
2018-10-09T08:44:17.483Z,15.47
2018-10-09T08:46:46.818Z,15.87
2018-10-09T08:49:16.678Z,15.70
2018-10-09T08:51:46.350Z,15.00
2018-10-09T08:54:15.787Z,15.90
2018-10-09T08:56:45.018Z,15.43
2018-10-09T08:59:14.243Z,15.50
2018-10-09T09:01:43.507Z,15.30
2018-10-09T09:04:12.746Z,13.83
2018-10-09T09:06:42.001Z,13.10
2018-10-09T09:09:12.047Z,15.50
2018-10-09T09:11:41.318Z,14.40
2018-10-09T09:14:10.707Z,15.47
2018-10-09T09:16:39.870Z,13.63
2018-10-09T09:19:09.249Z,13.70
2018-10-09T09:21:38.545Z,12.17
2018-10-09T09:24:08.218Z,12.90
2018-10-09T09:26:37.759Z,12.47
2018-10-09T09:29:07.452Z,12.20
2018-10-09T09:31:36.738Z,12.50
2018-10-09T09:34:07.096Z,12.30
2018-10-09T09:36:36.338Z,13.07
2018-10-09T09:39:07.515Z,12.80
2018-10-09T09:41:36.708Z,12.17
2018-10-09T09:44:07.007Z,12.87
2018-10-09T09:46:36.381Z,11.60
2018-10-09T09:49:05.605Z,11.70
2018-10-09T09:51:34.856Z,12.47
2018-10-09T09:54:04.258Z,13.27
2018-10-09T09:56:33.705Z,14.30
2018-10-09T09:59:03.144Z,11.77
2018-10-09T10:01:38.100Z,12.13
2018-10-09T10:04:07.358Z,11.47
2018-10-09T10:06:36.700Z,12.23
2018-10-09T10:09:07.341Z,12.27
2018-10-09T10:11:36.926Z,12.50
2018-10-09T10:14:07.579Z,13.23
2018-10-09T10:16:36.856Z,12.67
2018-10-09T10:19:06.280Z,12.27
2018-10-09T10:21:35.578Z,10.93
2018-10-09T10:24:05.422Z,11.60
2018-10-09T10:26:34.673Z,11.00
2018-10-09T10:29:04.011Z,14.47
2018-10-09T10:31:33.313Z,11.80
2018-10-09T10:34:02.605Z,13.10
2018-10-09T10:36:31.875Z,9.90
2018-10-09T10:39:01.143Z,12.37
2018-10-09T10:41:30.366Z,10.80
2018-10-09T10:43:59.554Z,9.37
2018-10-09T10:46:44.014Z,10.83
2018-10-09T10:49:14.444Z,9.93
2018-10-09T10:51:43.690Z,9.97
2018-10-09T10:54:13.056Z,9.03
2018-10-09T10:56:42.291Z,9.20
2018-10-09T10:59:11.530Z,8.97
2018-10-09T11:01:40.926Z,10.10
2018-10-09T11:04:10.130Z,8.90
2018-10-09T11:06:39.567Z,8.93
2018-10-09T11:09:10.693Z,7.80
2018-10-09T11:11:39.914Z,9.20
2018-10-09T11:14:09.110Z,9.40
2018-10-09T11:16:38.458Z,8.80
2018-10-09T11:19:07.742Z,9.67
2018-10-09T11:21:37.014Z,8.83
2018-10-09T11:24:06.395Z,9.50
2018-10-09T11:26:35.666Z,8.50
2018-10-09T11:29:04.939Z,9.47
2018-10-09T11:31:34.438Z,9.83
2018-10-09T11:34:03.718Z,9.03
2018-10-09T11:36:32.958Z,9.03
2018-10-09T11:39:02.317Z,9.93
2018-10-09T11:41:31.870Z,9.80
2018-10-09T11:44:01.155Z,10.30
2018-10-09T11:46:30.502Z,10.57
2018-10-09T11:48:59.764Z,11.63
2018-10-09T11:51:29.060Z,10.90
2018-10-09T11:53:58.469Z,10.50
2018-10-09T11:56:27.700Z,11.27
2018-10-09T11:58:57.129Z,10.90
2018-10-09T12:01:26.727Z,11.63
2018-10-09T12:03:56.071Z,11.00
2018-10-09T12:06:25.322Z,11.93
2018-10-09T12:08:54.682Z,11.53
2018-10-09T12:11:23.989Z,10.83
2018-10-09T12:13:53.211Z,9.47
2018-10-09T12:16:22.606Z,11.73
2018-10-09T12:18:51.938Z,11.13
2018-10-09T12:21:21.309Z,10.17
2018-10-09T12:23:50.795Z,10.60
2018-10-09T12:26:20.150Z,11.80
2018-10-09T12:28:49.511Z,10.90
2018-10-09T12:31:18.730Z,13.80
2018-10-09T12:33:47.934Z,12.20
2018-10-09T12:36:17.212Z,11.83
2018-10-09T12:38:46.442Z,11.37
2018-10-09T12:41:15.777Z,10.90
2018-10-09T12:43:45.127Z,12.50
2018-10-09T12:46:16.898Z,12.60
2018-10-09T12:48:46.255Z,11.00
2018-10-09T12:51:15.503Z,11.57
2018-10-09T12:53:48.930Z,13.43
2018-10-09T12:56:18.120Z,11.30
2018-10-09T12:58:47.371Z,13.27
2018-10-09T13:01:16.949Z,11.50
2018-10-09T13:03:46.167Z,12.43
2018-10-09T13:06:16.478Z,11.73
2018-10-09T13:08:45.724Z,12.40
2018-10-09T13:11:14.919Z,13.00
2018-10-09T13:13:44.270Z,13.23
2018-10-09T13:16:13.493Z,10.80
2018-10-09T13:18:42.723Z,13.57
2018-10-09T13:21:12.127Z,12.67
2018-10-09T13:23:41.268Z,13.57
2018-10-09T13:26:10.538Z,13.57
2018-10-09T13:28:39.909Z,13.37
2018-10-09T13:31:09.169Z,14.63
2018-10-09T13:33:38.356Z,14.23
2018-10-09T13:36:15.982Z,15.07
2018-10-09T13:38:45.160Z,14.90
2018-10-09T13:41:14.444Z,14.47
2018-10-09T13:43:43.642Z,16.40
2018-10-09T13:46:12.890Z,16.40
2018-10-09T13:48:42.108Z,16.37
2018-10-09T13:51:11.435Z,14.83
2018-10-09T13:53:40.641Z,14.70
2018-10-09T13:56:09.881Z,15.00
2018-10-09T13:58:39.105Z,14.50
2018-10-09T14:01:08.448Z,15.60
2018-10-09T14:03:37.732Z,15.60
2018-10-09T14:06:06.988Z,15.60
2018-10-09T14:08:36.226Z,14.37
2018-10-09T14:11:05.549Z,15.50
2018-10-09T14:13:34.854Z,16.00
2018-10-09T14:16:04.153Z,14.30
2018-10-09T14:18:33.558Z,15.87
2018-10-09T14:21:02.803Z,15.27
2018-10-09T14:23:33.081Z,14.20
2018-10-09T14:26:02.581Z,16.00
2018-10-09T14:28:31.809Z,15.33
2018-10-09T14:31:01.086Z,17.57
2018-10-09T14:33:31.406Z,16.80
2018-10-09T14:36:00.640Z,18.27
2018-10-09T14:38:29.895Z,16.77
2018-10-09T14:40:59.161Z,16.77
2018-10-09T14:43:28.374Z,17.63
2018-10-09T14:45:57.680Z,18.93
2018-10-09T14:48:26.942Z,17.83
2018-10-09T14:50:56.183Z,18.17
2018-10-09T14:53:25.490Z,16.70
2018-10-09T14:55:54.810Z,18.07
2018-10-09T14:58:24.011Z,16.20
2018-10-09T15:00:53.334Z,17.43
2018-10-09T15:03:22.590Z,16.67
2018-10-09T15:05:52.078Z,17.57
2018-10-09T15:08:21.490Z,19.30
2018-10-09T15:10:50.730Z,17.67
2018-10-09T15:13:19.958Z,18.73
2018-10-09T15:15:49.318Z,18.83
2018-10-09T15:18:18.564Z,20.77
2018-10-09T15:20:47.816Z,18.43
2018-10-09T15:23:17.253Z,18.60
2018-10-09T15:25:46.502Z,17.53
2018-10-09T15:28:15.882Z,18.67
2018-10-09T15:30:45.127Z,19.97
2018-10-09T15:33:14.406Z,17.30
2018-10-09T15:35:43.662Z,19.47
2018-10-09T15:38:12.914Z,18.87
2018-10-09T15:40:42.253Z,19.87
2018-10-09T15:43:11.461Z,19.67
2018-10-09T15:45:40.696Z,23.10
2018-10-09T15:48:09.991Z,19.47
2018-10-09T15:50:39.209Z,17.67
2018-10-09T15:53:08.527Z,18.53
2018-10-09T15:55:37.741Z,18.67
2018-10-09T15:58:06.969Z,20.30
2018-10-09T16:00:36.418Z,19.63
2018-10-09T16:03:06.102Z,18.40
2018-10-09T16:05:35.387Z,19.50
2018-10-09T16:08:04.678Z,18.10
2018-10-09T16:10:33.922Z,16.97
2018-10-09T16:13:03.334Z,17.33
2018-10-09T16:15:32.617Z,19.07
2018-10-09T16:18:01.910Z,18.40
2018-10-09T16:20:31.244Z,19.70
2018-10-09T16:23:00.497Z,18.50
2018-10-09T16:25:29.743Z,19.37
2018-10-09T16:27:59.027Z,17.97
2018-10-09T16:30:28.258Z,19.73
2018-10-09T16:32:57.518Z,17.57
2018-10-09T16:35:27.010Z,19.10
2018-10-09T16:37:56.386Z,19.80
2018-10-09T16:40:25.644Z,18.87
2018-10-09T16:42:54.909Z,18.43
2018-10-09T16:45:24.262Z,19.20
2018-10-09T16:47:53.522Z,16.80
2018-10-09T16:50:22.774Z,19.47
2018-10-09T16:52:52.056Z,17.23
2018-10-09T16:55:21.303Z,19.00
2018-10-09T16:57:50.503Z,15.97
2018-10-09T17:00:19.778Z,19.30
2018-10-09T17:02:49.000Z,18.17
2018-10-09T17:05:18.251Z,19.10
2018-10-09T17:07:47.605Z,17.40
2018-10-09T17:10:17.287Z,17.90
2018-10-09T17:12:46.674Z,19.20
2018-10-09T17:15:15.978Z,18.67
2018-10-09T17:17:45.432Z,19.60
2018-10-09T17:20:15.333Z,19.67
2018-10-09T17:22:44.635Z,18.80
2018-10-09T17:25:13.846Z,29.17
2018-10-09T17:27:43.124Z,16.80
2018-10-09T17:30:12.598Z,26.00
2018-10-09T17:32:41.886Z,18.20
2018-10-09T17:35:11.139Z,17.80
2018-10-09T17:37:40.333Z,21.33
2018-10-09T17:40:09.584Z,19.60
2018-10-09T17:42:38.779Z,20.40
2018-10-09T17:45:08.259Z,19.77
2018-10-09T17:47:37.565Z,23.10
2018-10-09T17:50:08.238Z,25.40
2018-10-09T17:52:37.494Z,20.40
2018-10-09T17:55:06.815Z,18.63
2018-10-09T17:57:36.050Z,20.53
2018-10-09T18:00:06.382Z,21.20
2018-10-09T18:02:35.700Z,18.83
2018-10-09T18:05:05.126Z,19.13
2018-10-09T18:07:34.375Z,20.80
2018-10-09T18:10:04.253Z,19.73
2018-10-09T18:12:33.892Z,19.40
2018-10-09T18:15:03.167Z,19.33
2018-10-09T18:17:32.518Z,20.87
2018-10-09T18:20:01.846Z,19.50
2018-10-09T18:22:31.123Z,20.93
2018-10-09T18:25:00.337Z,19.13
2018-10-09T18:27:29.666Z,20.13
2018-10-09T18:29:58.953Z,17.77
2018-10-09T18:32:28.242Z,18.20
2018-10-09T18:34:57.401Z,20.97
2018-10-09T18:37:26.607Z,19.60
2018-10-09T18:39:55.940Z,19.73
2018-10-09T18:42:25.306Z,20.87
2018-10-09T18:44:54.466Z,19.87
2018-10-09T18:47:29.177Z,17.63
2018-10-09T18:49:58.380Z,19.13
2018-10-09T18:52:27.606Z,19.10
2018-10-09T18:54:57.501Z,19.63
2018-10-09T18:57:26.867Z,20.20
2018-10-09T18:59:56.215Z,19.23
2018-10-09T19:02:25.458Z,19.40
2018-10-09T19:04:54.693Z,19.97
2018-10-09T19:07:23.903Z,19.57
2018-10-09T19:09:53.257Z,19.40
2018-10-09T19:12:22.553Z,19.53
2018-10-09T19:14:51.894Z,20.00
2018-10-09T19:17:21.193Z,18.90
2018-10-09T19:19:50.541Z,19.37
2018-10-09T19:22:19.854Z,19.17
2018-10-09T19:24:49.150Z,19.30
2018-10-09T19:27:19.475Z,18.23
2018-10-09T19:29:48.877Z,17.37
2018-10-09T19:32:18.328Z,20.00
2018-10-09T19:34:47.606Z,18.80
2018-10-09T19:37:18.886Z,19.80
2018-10-09T19:39:48.308Z,18.53
2018-10-09T19:42:18.502Z,23.57
2018-10-09T19:44:47.950Z,19.27
2018-10-09T19:47:17.214Z,20.47
2018-10-09T19:49:46.475Z,26.23
2018-10-09T19:52:15.759Z,20.20
2018-10-09T19:54:45.067Z,18.73
2018-10-09T19:57:14.386Z,18.90
2018-10-09T19:59:43.718Z,18.90
2018-10-09T20:02:13.038Z,18.73
2018-10-09T20:04:42.349Z,19.03
2018-10-09T20:07:11.653Z,15.97
2018-10-09T20:09:41.029Z,18.03
2018-10-09T20:12:10.338Z,17.03
2018-10-09T20:14:39.623Z,20.60
2018-10-09T20:17:08.856Z,20.33
2018-10-09T20:19:44.789Z,16.20
2018-10-09T20:22:14.101Z,17.73
2018-10-09T20:24:43.436Z,23.50
2018-10-09T20:27:12.634Z,20.83
2018-10-09T20:29:41.890Z,16.37
2018-10-09T20:32:11.248Z,15.97
2018-10-09T20:34:40.470Z,18.03
2018-10-09T20:37:09.725Z,16.50
2018-10-09T20:39:38.946Z,16.97
2018-10-09T20:42:08.260Z,16.03
2018-10-09T20:44:37.582Z,19.37
2018-10-09T20:47:07.178Z,16.50
2018-10-09T20:49:36.480Z,15.27
2018-10-09T20:52:05.845Z,17.60
2018-10-09T20:54:35.114Z,17.60
2018-10-09T20:57:04.410Z,16.20
2018-10-09T20:59:33.878Z,15.80
2018-10-09T21:02:03.060Z,15.47
2018-10-09T21:04:32.371Z,17.13
2018-10-09T21:07:01.661Z,16.37
2018-10-09T21:09:30.949Z,17.67
2018-10-09T21:12:00.212Z,16.70
2018-10-09T21:14:30.566Z,15.53
2018-10-09T21:16:59.939Z,18.00
2018-10-09T21:19:29.994Z,17.13
2018-10-09T21:21:59.317Z,18.17
2018-10-09T21:24:28.667Z,18.60
2018-10-09T21:26:57.975Z,17.17
2018-10-09T21:29:27.285Z,17.70
2018-10-09T21:31:56.559Z,19.30
2018-10-09T21:34:25.772Z,17.37
2018-10-09T21:36:55.026Z,16.83
2018-10-09T21:39:24.447Z,17.50
2018-10-09T21:41:53.680Z,16.67
2018-10-09T21:44:22.902Z,18.00
2018-10-09T21:46:52.282Z,17.97
2018-10-09T21:49:21.513Z,18.30
2018-10-09T21:51:50.778Z,17.57
2018-10-09T21:54:20.066Z,18.17
2018-10-09T21:56:51.423Z,17.90
2018-10-09T21:59:20.658Z,21.10
2018-10-09T22:01:49.949Z,17.30
2018-10-09T22:04:19.198Z,18.43
2018-10-09T22:06:48.490Z,18.00
2018-10-09T22:09:17.770Z,17.07
2018-10-09T22:11:47.025Z,17.93
2018-10-09T22:14:16.275Z,18.77
2018-10-09T22:16:45.598Z,19.33
2018-10-09T22:19:14.934Z,18.70
2018-10-09T22:21:44.170Z,18.57
2018-10-09T22:24:13.557Z,18.77
2018-10-09T22:26:42.813Z,17.43
2018-10-09T22:29:12.090Z,18.10
2018-10-09T22:31:41.341Z,18.53
2018-10-09T22:34:10.580Z,20.57
2018-10-09T22:36:39.823Z,20.90
2018-10-09T22:39:10.035Z,19.97
2018-10-09T22:41:39.326Z,21.57
2018-10-09T22:44:08.678Z,19.10
2018-10-09T22:46:37.807Z,16.30
2018-10-09T22:49:07.105Z,18.03
2018-10-09T22:51:36.351Z,20.07
2018-10-09T22:54:05.717Z,18.80
2018-10-09T22:56:36.041Z,21.73
2018-10-09T22:59:05.338Z,17.97
2018-10-09T23:01:34.575Z,22.70
2018-10-09T23:04:03.771Z,19.47
2018-10-09T23:06:33.009Z,24.00
2018-10-09T23:09:02.250Z,20.80
2018-10-09T23:11:31.523Z,20.80
2018-10-09T23:14:00.725Z,21.03
2018-10-09T23:16:30.026Z,19.57
2018-10-09T23:18:59.366Z,19.07
2018-10-09T23:21:28.551Z,20.73
2018-10-09T23:23:57.887Z,22.57
2018-10-09T23:26:27.125Z,21.10
2018-10-09T23:28:56.336Z,24.70
2018-10-09T23:31:25.721Z,22.20
2018-10-09T23:33:54.950Z,24.43
2018-10-09T23:36:24.173Z,24.10
2018-10-09T23:38:53.425Z,20.67
2018-10-09T23:41:22.802Z,23.20
2018-10-09T23:43:52.036Z,22.60
2018-10-09T23:46:21.325Z,21.33
2018-10-09T23:50:15.001Z,19.23
2018-10-09T23:52:44.607Z,20.47
2018-10-09T23:55:14.962Z,20.33
2018-10-09T23:57:44.230Z,19.40
